createdAt,value
2022-12-15T00:01:24.816Z,26.47
2022-12-15T00:04:12.031Z,25.43
2022-12-15T00:06:59.313Z,25.67
2022-12-15T00:09:47.740Z,25.93
2022-12-15T00:12:35.270Z,25.60
2022-12-15T00:15:23.041Z,27.07
2022-12-15T00:18:10.797Z,26.83
2022-12-15T00:20:58.216Z,25.80
2022-12-15T00:23:45.389Z,27.40
2022-12-15T00:26:32.473Z,25.93
2022-12-15T00:29:19.619Z,25.40
2022-12-15T00:32:07.873Z,25.63
2022-12-15T00:34:55.459Z,24.77
2022-12-15T00:37:42.613Z,24.03
2022-12-15T00:40:13.354Z,24.43
2022-12-15T00:42:42.146Z,27.90
2022-12-15T00:45:11.848Z,17.80
2022-12-15T00:47:40.502Z,25.33
2022-12-15T00:50:28.418Z,25.17
2022-12-15T00:53:15.401Z,25.23
2022-12-15T00:56:02.716Z,24.33
2022-12-15T00:58:49.781Z,24.43
2022-12-15T01:01:37.127Z,25.40
2022-12-15T01:04:24.936Z,23.67
2022-12-15T01:07:11.938Z,25.73
2022-12-15T01:09:59.026Z,24.37
2022-12-15T01:12:46.136Z,25.23
2022-12-15T01:15:33.204Z,26.13
2022-12-15T01:18:20.318Z,25.33
2022-12-15T01:20:56.836Z,24.80
2022-12-15T01:23:25.978Z,24.13
2022-12-15T01:25:56.217Z,25.43
2022-12-15T01:28:26.618Z,26.13
2022-12-15T01:30:58.408Z,27.30
2022-12-15T01:33:27.653Z,25.50
2022-12-15T01:35:59.410Z,26.70
2022-12-15T01:38:29.869Z,26.93
2022-12-15T01:41:05.385Z,26.70
2022-12-15T01:43:36.427Z,25.33
2022-12-15T01:46:08.027Z,26.87
2022-12-15T01:48:41.271Z,25.67
2022-12-15T01:51:18.358Z,26.82
2022-12-15T01:53:53.328Z,25.60
2022-12-15T01:56:26.345Z,25.57
2022-12-15T01:59:00.447Z,27.17
2022-12-15T02:01:30.303Z,24.13
2022-12-15T02:04:00.600Z,25.40
2022-12-15T02:06:30.658Z,24.50
2022-12-15T02:09:01.189Z,25.93
2022-12-15T02:11:50.639Z,25.20
2022-12-15T02:14:31.834Z,23.37
2022-12-15T02:17:14.527Z,25.33
2022-12-15T02:20:21.022Z,24.37
2022-12-15T02:23:16.872Z,23.40
2022-12-15T02:26:10.207Z,24.33
2022-12-15T02:28:52.710Z,25.13
2022-12-15T02:31:46.462Z,27.90
2022-12-15T02:34:27.093Z,25.20
2022-12-15T02:37:00.208Z,24.33
2022-12-15T02:39:30.997Z,24.47
2022-12-15T02:42:00.489Z,25.83
2022-12-15T02:44:33.477Z,26.53
2022-12-15T02:47:27.430Z,25.33
2022-12-15T02:50:18.258Z,24.50
2022-12-15T02:52:59.646Z,25.50
2022-12-15T02:55:39.700Z,26.83
2022-12-15T02:58:18.626Z,26.43
2022-12-15T03:00:53.742Z,27.00
2022-12-15T03:03:23.615Z,26.67
2022-12-15T03:05:54.211Z,26.03
2022-12-15T03:08:23.158Z,26.70
2022-12-15T03:10:54.686Z,26.27
2022-12-15T03:13:26.140Z,26.95
2022-12-15T03:15:54.851Z,26.87
2022-12-15T03:18:23.555Z,29.23
2022-12-15T03:20:53.945Z,28.07
2022-12-15T03:23:22.629Z,25.47
2022-12-15T03:25:52.553Z,27.60
2022-12-15T03:28:21.263Z,25.83
2022-12-15T03:30:51.810Z,25.27
2022-12-15T03:33:22.095Z,26.07
2022-12-15T03:35:52.111Z,26.27
2022-12-15T03:38:21.078Z,26.43
2022-12-15T03:40:51.247Z,28.73
2022-12-15T03:43:19.973Z,26.30
2022-12-15T03:45:49.112Z,25.47
2022-12-15T03:48:19.535Z,25.77
2022-12-15T03:50:52.419Z,23.37
2022-12-15T03:53:21.630Z,25.17
2022-12-15T03:55:52.304Z,25.70
2022-12-15T03:58:21.027Z,24.40
2022-12-15T04:00:52.111Z,23.43
2022-12-15T04:03:21.153Z,25.57
2022-12-15T04:05:52.586Z,22.73
2022-12-15T04:08:26.092Z,23.93
2022-12-15T04:10:54.763Z,26.70
2022-12-15T04:13:23.434Z,24.97
2022-12-15T04:15:54.487Z,23.70
2022-12-15T04:18:23.277Z,26.13
2022-12-15T04:20:55.097Z,25.60
2022-12-15T04:23:25.231Z,23.77
2022-12-15T04:26:12.642Z,25.03
2022-12-15T04:29:00.215Z,25.53
2022-12-15T04:31:50.664Z,25.17
2022-12-15T04:34:40.667Z,26.63
2022-12-15T04:37:32.423Z,27.97
2022-12-15T04:40:19.652Z,28.03
2022-12-15T04:43:07.403Z,26.20
2022-12-15T04:45:59.575Z,28.37
2022-12-15T04:48:47.010Z,26.67
2022-12-15T04:51:34.055Z,27.90
2022-12-15T04:54:21.482Z,27.80
2022-12-15T04:57:08.370Z,28.40
2022-12-15T04:59:55.867Z,27.60
2022-12-15T05:02:43.324Z,27.87
2022-12-15T05:05:32.109Z,27.57
2022-12-15T05:08:19.737Z,28.07
2022-12-15T05:11:06.621Z,27.53
2022-12-15T05:13:53.935Z,26.33
2022-12-15T05:16:42.189Z,25.87
2022-12-15T05:19:29.116Z,27.87
2022-12-15T05:22:18.524Z,28.67
2022-12-15T05:25:05.566Z,29.57
2022-12-15T05:27:52.863Z,31.57
2022-12-15T05:30:40.184Z,34.53
2022-12-15T05:33:09.025Z,33.00
2022-12-15T05:35:40.102Z,29.97
2022-12-15T05:38:08.942Z,30.73
2022-12-15T05:40:39.522Z,30.87
2022-12-15T05:43:09.024Z,33.40
2022-12-15T05:45:39.973Z,31.30
2022-12-15T05:48:08.634Z,31.87
2022-12-15T05:50:38.003Z,36.57
2022-12-15T05:53:08.159Z,34.90
2022-12-15T05:55:38.293Z,33.63
2022-12-15T05:58:07.912Z,36.53
2022-12-15T06:00:39.443Z,37.80
2022-12-15T06:03:08.097Z,35.87
2022-12-15T06:05:39.094Z,31.43
2022-12-15T06:08:07.863Z,31.57
2022-12-15T06:10:39.537Z,32.83
2022-12-15T06:13:09.573Z,32.10
2022-12-15T06:15:42.439Z,34.20
2022-12-15T06:18:11.435Z,31.77
2022-12-15T06:20:40.992Z,33.13
2022-12-15T06:23:11.570Z,33.50
2022-12-15T06:25:42.145Z,31.67
2022-12-15T06:28:11.963Z,34.53
2022-12-15T06:30:43.427Z,36.40
2022-12-15T06:33:13.284Z,35.53
2022-12-15T06:35:42.651Z,34.93
2022-12-15T06:38:12.664Z,40.37
2022-12-15T06:40:42.818Z,37.33
2022-12-15T06:43:12.215Z,38.70
2022-12-15T06:45:49.906Z,36.93
2022-12-15T06:48:22.374Z,36.63
2022-12-15T06:50:57.769Z,40.63
2022-12-15T06:53:26.523Z,34.40
2022-12-15T06:56:02.332Z,38.10
2022-12-15T06:58:31.001Z,37.17
2022-12-15T07:01:04.773Z,39.60
2022-12-15T07:03:34.552Z,41.28
2022-12-15T07:06:05.932Z,39.57
2022-12-15T07:08:41.178Z,41.50
2022-12-15T07:11:12.557Z,41.33
2022-12-15T07:13:41.540Z,41.47
2022-12-15T07:16:12.145Z,41.00
2022-12-15T07:18:40.965Z,39.47
2022-12-15T07:21:10.707Z,39.83
2022-12-15T07:23:54.023Z,49.37
2022-12-15T07:26:25.490Z,43.30
2022-12-15T07:28:54.620Z,47.87
2022-12-15T07:31:23.785Z,39.33
2022-12-15T07:33:54.050Z,37.70
2022-12-15T07:36:23.389Z,39.10
2022-12-15T07:38:56.787Z,42.03
2022-12-15T07:41:25.719Z,36.88
2022-12-15T07:43:54.733Z,48.10
2022-12-15T07:46:25.257Z,59.70
2022-12-15T07:48:54.557Z,59.57
2022-12-15T07:51:23.358Z,59.40
2022-12-15T07:53:52.762Z,51.70
2022-12-15T07:56:21.509Z,50.57
2022-12-15T07:58:52.587Z,46.53
2022-12-15T08:01:21.547Z,53.87
2022-12-15T08:03:50.609Z,51.13
2022-12-15T08:06:20.690Z,55.97
2022-12-15T08:08:50.659Z,60.00
2022-12-15T08:11:24.135Z,49.63
2022-12-15T08:14:02.927Z,69.17
2022-12-15T08:16:34.035Z,65.17
2022-12-15T08:19:04.757Z,49.20
2022-12-15T08:21:34.216Z,46.50
2022-12-15T08:24:03.824Z,49.93
2022-12-15T08:26:32.672Z,48.03
2022-12-15T08:29:31.791Z,46.83
2022-12-15T08:31:54.659Z,46.43
2022-12-15T08:34:24.004Z,47.17
2022-12-15T08:36:55.414Z,45.40
2022-12-15T08:39:24.112Z,41.97
2022-12-15T08:41:55.786Z,40.60
2022-12-15T08:44:24.608Z,44.63
2022-12-15T08:46:53.859Z,51.00
2022-12-15T08:49:22.960Z,47.50
2022-12-15T08:51:51.954Z,49.53
2022-12-15T08:54:21.537Z,49.60
2022-12-15T08:56:50.453Z,49.87
2022-12-15T08:59:19.658Z,51.77
2022-12-15T09:01:48.706Z,57.40
2022-12-15T09:04:18.060Z,54.67
2022-12-15T09:06:50.607Z,54.57
2022-12-15T09:09:20.382Z,55.50
2022-12-15T09:11:49.418Z,50.13
2022-12-15T09:14:21.564Z,48.17
2022-12-15T09:16:56.779Z,50.87
2022-12-15T09:19:27.373Z,49.30
2022-12-15T09:21:56.450Z,38.93
2022-12-15T09:24:34.268Z,46.80
2022-12-15T09:27:04.475Z,39.97
2022-12-15T09:29:33.733Z,34.47
2022-12-15T09:32:04.067Z,33.87
2022-12-15T09:34:35.952Z,32.27
2022-12-15T09:37:04.692Z,33.17
2022-12-15T09:39:33.502Z,31.73
2022-12-15T09:42:02.334Z,35.17
2022-12-15T09:44:33.054Z,36.30
2022-12-15T09:47:24.715Z,41.63
2022-12-15T09:49:58.192Z,44.47
2022-12-15T09:52:30.003Z,45.88
2022-12-15T09:55:01.171Z,43.40
2022-12-15T09:57:40.287Z,44.00
2022-12-15T10:00:17.168Z,42.60
2022-12-15T10:03:24.414Z,41.47
2022-12-15T10:06:16.104Z,50.83
2022-12-15T10:08:50.700Z,50.13
2022-12-15T10:11:35.809Z,41.70
2022-12-15T10:14:14.263Z,54.73
2022-12-15T10:16:55.590Z,44.47
2022-12-15T10:19:31.465Z,43.40
2022-12-15T10:22:00.830Z,39.07
2022-12-15T10:25:07.994Z,31.03
2022-12-15T10:28:02.144Z,36.75
2022-12-15T10:30:31.199Z,36.17
2022-12-15T10:33:03.620Z,36.37
2022-12-15T10:35:37.115Z,39.53
2022-12-15T10:38:16.191Z,41.25
2022-12-15T10:40:50.336Z,41.23
2022-12-15T10:43:40.343Z,43.37
2022-12-15T10:46:14.355Z,45.70
2022-12-15T10:51:19.301Z,42.53
2022-12-15T10:53:51.146Z,45.73
2022-12-15T10:56:28.833Z,41.17
2022-12-15T10:59:04.045Z,40.00
2022-12-15T11:01:35.097Z,39.10
2022-12-15T11:04:05.512Z,41.77
2022-12-15T11:06:36.317Z,42.17
2022-12-15T11:09:26.755Z,46.20
2022-12-15T11:12:15.051Z,44.77
2022-12-15T11:14:46.305Z,44.80
2022-12-15T11:17:18.394Z,40.80
2022-12-15T11:19:58.198Z,43.03
2022-12-15T11:22:46.761Z,42.07
2022-12-15T11:25:34.028Z,42.00
2022-12-15T11:28:06.778Z,38.90
2022-12-15T11:30:42.971Z,35.37
2022-12-15T11:33:11.912Z,43.47
2022-12-15T11:35:57.411Z,40.60
2022-12-15T11:38:34.906Z,40.53
2022-12-15T11:41:13.131Z,36.00
2022-12-15T11:47:06.626Z,45.13
2022-12-15T11:49:55.016Z,47.90
2022-12-15T11:52:50.302Z,43.03
2022-12-15T11:55:32.151Z,45.07
2022-12-15T11:58:32.726Z,39.97
2022-12-15T12:01:09.854Z,43.80
2022-12-15T12:03:54.876Z,45.00
2022-12-15T12:06:32.466Z,38.10
2022-12-15T12:09:17.945Z,44.67
2022-12-15T12:11:55.208Z,47.70
2022-12-15T12:14:39.101Z,44.80
2022-12-15T12:17:14.354Z,42.25
2022-12-15T12:19:47.124Z,46.43
2022-12-15T12:22:25.773Z,43.03
2022-12-15T12:25:00.056Z,43.40
2022-12-15T12:30:06.473Z,43.60
2022-12-15T12:32:47.137Z,43.53
2022-12-15T12:35:30.690Z,40.37
2022-12-15T12:38:04.630Z,43.50
2022-12-15T12:40:52.347Z,40.57
2022-12-15T12:43:32.686Z,39.93
2022-12-15T12:46:09.744Z,40.50
2022-12-15T12:48:43.400Z,40.97
2022-12-15T12:51:25.448Z,44.75
2022-12-15T12:53:56.609Z,42.35
2022-12-15T12:56:39.996Z,40.60
2022-12-15T12:59:35.862Z,37.70
2022-12-15T13:02:37.800Z,36.23
2022-12-15T13:05:31.070Z,41.13
2022-12-15T13:08:50.843Z,39.83
2022-12-15T13:11:57.023Z,32.10
2022-12-15T13:14:42.526Z,36.20
2022-12-15T13:17:26.568Z,35.80
2022-12-15T13:20:25.931Z,34.53
2022-12-15T13:23:18.276Z,33.20
2022-12-15T13:26:05.400Z,34.03
2022-12-15T13:28:48.574Z,30.77
2022-12-15T13:31:29.868Z,32.30
2022-12-15T13:34:23.768Z,32.90
2022-12-15T13:37:02.412Z,31.43
2022-12-15T13:39:50.737Z,31.67
2022-12-15T13:42:41.605Z,30.90
2022-12-15T13:45:50.236Z,32.93
2022-12-15T13:48:31.797Z,34.90
2022-12-15T13:51:14.686Z,39.40
2022-12-15T13:53:51.644Z,32.97
2022-12-15T13:56:28.501Z,36.77
2022-12-15T13:59:05.264Z,33.33
2022-12-15T14:01:34.154Z,32.07
2022-12-15T14:04:15.132Z,26.57
2022-12-15T14:06:48.527Z,27.57
2022-12-15T14:09:25.819Z,28.20
2022-12-15T14:11:55.108Z,29.03
2022-12-15T14:14:28.976Z,28.27
2022-12-15T14:17:02.231Z,33.67
2022-12-15T14:19:43.363Z,27.10
2022-12-15T14:22:28.021Z,30.10
2022-12-15T14:25:12.931Z,27.63
2022-12-15T14:27:41.893Z,27.27
2022-12-15T14:30:22.024Z,20.53
2022-12-15T14:32:54.424Z,25.90
2022-12-15T14:35:30.598Z,25.10
2022-12-15T14:38:06.618Z,27.90
2022-12-15T14:40:49.212Z,27.80
2022-12-15T14:43:22.732Z,27.30
2022-12-15T14:45:57.041Z,31.37
2022-12-15T14:48:42.322Z,32.00
2022-12-15T14:51:14.357Z,33.80
2022-12-15T14:53:48.073Z,26.00
2022-12-15T14:56:30.299Z,35.85
2022-12-15T14:59:03.568Z,31.40
2022-12-15T15:01:40.444Z,34.35
2022-12-15T15:03:10.905Z,38.40
2022-12-15T15:04:25.569Z,34.27
2022-12-15T15:06:58.277Z,35.20
2022-12-15T15:09:29.872Z,38.90
2022-12-15T15:12:03.765Z,37.93
2022-12-15T15:14:38.279Z,36.13
2022-12-15T15:17:17.041Z,34.83
2022-12-15T15:19:50.855Z,32.80
2022-12-15T15:22:36.777Z,32.23
2022-12-15T15:50:31.938Z,39.57
2022-12-15T15:53:00.647Z,38.70
2022-12-15T15:55:39.417Z,35.13
2022-12-15T15:58:14.817Z,41.07
2022-12-15T16:00:44.244Z,42.47
2022-12-15T16:03:13.302Z,38.33
2022-12-15T16:05:43.334Z,30.90
2022-12-15T16:08:17.349Z,31.33
2022-12-15T16:10:48.534Z,32.83
2022-12-15T16:13:25.529Z,33.37
2022-12-15T16:15:57.483Z,33.47
2022-12-15T16:18:29.183Z,36.70
2022-12-15T16:21:02.492Z,36.10
2022-12-15T16:23:31.382Z,38.70
2022-12-15T16:26:13.998Z,34.15
2022-12-15T16:28:43.188Z,37.00
2022-12-15T16:31:15.935Z,37.17
2022-12-15T16:33:44.889Z,37.97
2022-12-15T16:36:14.805Z,36.33
2022-12-15T16:38:43.727Z,38.57
2022-12-15T16:41:16.941Z,36.90
2022-12-15T16:43:48.093Z,38.90
2022-12-15T16:46:17.439Z,38.90
2022-12-15T16:48:48.434Z,39.00
2022-12-15T16:51:27.582Z,38.67
2022-12-15T16:53:58.345Z,37.93
2022-12-15T16:56:27.335Z,36.57
2022-12-15T16:59:23.782Z,37.77
2022-12-15T17:01:47.879Z,37.17
2022-12-15T17:04:16.955Z,36.10
2022-12-15T17:06:46.233Z,35.97
2022-12-15T17:09:21.615Z,40.13
2022-12-15T17:12:05.112Z,38.77
2022-12-15T17:14:37.424Z,37.63
2022-12-15T17:17:12.920Z,37.97
2022-12-15T17:19:57.999Z,38.70
2022-12-15T17:22:32.302Z,39.20
2022-12-15T17:25:02.025Z,40.40
2022-12-15T17:27:31.544Z,39.77
2022-12-15T17:30:02.569Z,38.07
2022-12-15T17:32:36.469Z,39.13
2022-12-15T17:35:21.554Z,40.93
2022-12-15T17:37:54.852Z,41.53
2022-12-15T17:40:24.702Z,44.67
2022-12-15T17:42:53.793Z,43.37
2022-12-15T17:45:26.196Z,42.33
2022-12-15T17:47:55.904Z,41.47
2022-12-15T17:50:25.740Z,37.90
2022-12-15T17:52:58.146Z,41.57
2022-12-15T17:55:34.589Z,39.77
2022-12-15T17:58:18.529Z,39.67
2022-12-15T18:00:50.090Z,38.87
2022-12-15T18:03:21.435Z,41.00
2022-12-15T18:05:52.148Z,39.23
2022-12-15T18:08:23.418Z,40.50
2022-12-15T18:10:54.796Z,44.37
2022-12-15T18:13:27.948Z,42.03
2022-12-15T18:16:01.848Z,41.40
2022-12-15T18:18:32.207Z,45.13
2022-12-15T18:21:12.460Z,43.13
2022-12-15T18:23:44.936Z,41.10
2022-12-15T18:26:14.962Z,42.60
2022-12-15T18:28:44.972Z,40.23
2022-12-15T18:31:20.217Z,40.83
2022-12-15T18:33:50.061Z,43.17
2022-12-15T18:36:20.921Z,41.87
2022-12-15T18:38:50.187Z,44.80
2022-12-15T18:41:20.873Z,45.07
2022-12-15T18:43:50.389Z,45.30
2022-12-15T18:46:19.772Z,46.97
2022-12-15T18:48:48.678Z,53.60
2022-12-15T18:51:20.133Z,58.13
2022-12-15T18:53:49.435Z,61.90
2022-12-15T18:56:21.001Z,57.80
2022-12-15T18:58:50.308Z,53.13
2022-12-15T19:01:20.105Z,48.20
2022-12-15T19:03:50.021Z,45.40
2022-12-15T19:06:25.963Z,45.13
2022-12-15T19:08:55.503Z,39.75
2022-12-15T19:11:30.361Z,45.20
2022-12-15T19:14:01.619Z,46.10
2022-12-15T19:16:51.802Z,46.03
2022-12-15T19:19:39.764Z,39.20
2022-12-15T19:22:30.112Z,39.37
2022-12-15T19:25:05.395Z,35.07
2022-12-15T19:27:34.443Z,35.40
2022-12-15T19:30:13.968Z,36.17
2022-12-15T19:32:47.963Z,37.20
2022-12-15T19:35:20.345Z,35.78
2022-12-15T19:37:49.764Z,36.83
2022-12-15T19:40:22.104Z,36.00
2022-12-15T19:42:55.548Z,36.50
2022-12-15T19:45:27.105Z,36.05
2022-12-15T19:47:57.062Z,35.80
2022-12-15T19:50:28.681Z,35.27
2022-12-15T19:53:01.232Z,66.30
2022-12-15T19:55:34.635Z,83.93
2022-12-15T19:58:27.698Z,83.25
2022-12-15T20:01:04.239Z,69.57
2022-12-15T20:03:34.641Z,58.53
2022-12-15T20:06:11.044Z,53.63
2022-12-15T20:08:45.148Z,50.90
2022-12-15T20:11:19.367Z,49.85
2022-12-15T20:13:50.182Z,49.10
2022-12-15T20:16:20.018Z,44.00
2022-12-15T20:18:50.888Z,41.23
2022-12-15T20:21:22.982Z,41.23
2022-12-15T20:23:56.140Z,42.00
2022-12-15T20:26:26.092Z,43.00
2022-12-15T20:28:54.817Z,40.90
2022-12-15T20:31:25.143Z,41.27
2022-12-15T20:33:54.388Z,40.50
2022-12-15T20:36:26.167Z,39.33
2022-12-15T20:38:56.216Z,40.13
2022-12-15T20:41:27.008Z,43.13
2022-12-15T20:43:57.260Z,41.33
2022-12-15T20:46:33.442Z,41.33
2022-12-15T20:49:04.097Z,37.63
2022-12-15T20:51:33.572Z,38.90
2022-12-15T20:54:03.365Z,36.97
2022-12-15T20:56:32.333Z,35.30
2022-12-15T20:59:01.770Z,39.43
2022-12-15T21:01:34.740Z,41.73
2022-12-15T21:04:16.560Z,42.03
2022-12-15T21:06:52.837Z,39.13
2022-12-15T21:09:24.022Z,43.40
2022-12-15T21:11:54.650Z,41.27
2022-12-15T21:14:24.839Z,38.80
2022-12-15T21:16:53.666Z,40.00
2022-12-15T21:19:23.259Z,46.35
2022-12-15T21:21:55.248Z,41.87
2022-12-15T21:24:25.986Z,43.33
2022-12-15T21:26:55.156Z,47.67
2022-12-15T21:29:27.313Z,49.65
2022-12-15T21:31:56.045Z,55.07
2022-12-15T21:34:24.765Z,52.33
2022-12-15T21:36:55.267Z,46.07
2022-12-15T21:39:28.893Z,44.30
2022-12-15T21:42:00.368Z,43.00
2022-12-15T21:44:29.486Z,41.47
2022-12-15T21:46:58.262Z,44.33
2022-12-15T21:49:28.698Z,44.65
2022-12-15T21:52:00.700Z,46.43
2022-12-15T21:54:32.726Z,47.30
2022-12-15T21:57:03.691Z,39.40
2022-12-15T21:59:33.317Z,45.93
2022-12-15T22:02:18.264Z,46.57
2022-12-15T22:04:51.557Z,46.53
2022-12-15T22:07:21.177Z,50.00
2022-12-15T22:09:51.155Z,48.80
2022-12-15T22:12:23.331Z,45.40
2022-12-15T22:14:52.807Z,43.13
2022-12-15T22:17:22.433Z,46.97
2022-12-15T22:19:52.587Z,48.70
2022-12-15T22:22:23.771Z,53.70
2022-12-15T22:24:54.489Z,59.07
2022-12-15T22:27:33.570Z,58.00
2022-12-15T22:30:03.892Z,55.70
2022-12-15T22:32:33.000Z,59.57
2022-12-15T22:35:02.155Z,53.93
2022-12-15T22:37:30.888Z,54.33
2022-12-15T22:40:00.837Z,53.60
2022-12-15T22:42:29.578Z,49.47
2022-12-15T22:44:58.708Z,54.87
2022-12-15T22:47:30.258Z,52.37
2022-12-15T22:49:59.053Z,53.57
2022-12-15T22:52:30.899Z,53.83
2022-12-15T22:55:00.694Z,47.27
2022-12-15T22:57:30.415Z,50.07
2022-12-15T23:00:05.109Z,46.03
2022-12-15T23:02:36.133Z,48.10
2022-12-15T23:05:06.842Z,49.03
2022-12-15T23:07:35.950Z,49.77
2022-12-15T23:10:24.730Z,47.67
2022-12-15T23:12:54.303Z,45.00
2022-12-15T23:15:42.823Z,46.57
2022-12-15T23:18:12.832Z,51.13
2022-12-15T23:20:42.855Z,50.10
2022-12-15T23:23:11.872Z,58.33
2022-12-15T23:25:43.699Z,53.00
2022-12-15T23:28:15.537Z,51.70
2022-12-15T23:30:49.341Z,47.57
2022-12-15T23:33:18.643Z,44.98
2022-12-15T23:35:48.767Z,45.63
2022-12-15T23:38:17.686Z,45.57
2022-12-15T23:40:51.090Z,46.07
2022-12-15T23:43:22.669Z,42.10
2022-12-15T23:45:58.019Z,42.40
2022-12-15T23:48:31.406Z,42.00
2022-12-15T23:51:11.971Z,40.92
2022-12-15T23:53:42.734Z,42.80
2022-12-15T23:56:13.889Z,41.03
2022-12-15T23:58:44.810Z,41.77
